createdAt,value
2022-12-11T00:01:16.005Z,98401.03
2022-12-11T00:04:21.574Z,98403.66
2022-12-11T00:07:26.789Z,98399.41
2022-12-11T00:10:34.637Z,98389.94
2022-12-11T00:13:43.540Z,98387.56
2022-12-11T00:16:48.342Z,98395.66
2022-12-11T00:19:51.325Z,98388.03
2022-12-11T00:22:54.550Z,98378.09
2022-12-11T00:25:57.443Z,98375.72
2022-12-11T00:29:00.304Z,98383.00
2022-12-11T00:32:03.285Z,98379.31
2022-12-11T00:35:06.705Z,98377.19
2022-12-11T00:38:18.546Z,98377.47
2022-12-11T00:41:22.026Z,98367.78
2022-12-11T00:44:25.314Z,98370.91
2022-12-11T00:47:28.986Z,98372.19
2022-12-11T00:50:31.762Z,98375.00
2022-12-11T00:53:34.867Z,98383.34
2022-12-11T00:56:37.923Z,98375.50
2022-12-11T00:59:41.179Z,98386.44
2022-12-11T01:02:44.261Z,98389.00
2022-12-11T01:05:55.690Z,98379.88
2022-12-11T01:09:16.780Z,98376.19
2022-12-11T01:12:19.695Z,98385.53
2022-12-11T01:15:24.534Z,98403.59
2022-12-11T01:18:27.955Z,98402.59
2022-12-11T01:21:30.855Z,98398.25
2022-12-11T01:24:33.858Z,98401.91
2022-12-11T01:27:37.646Z,98399.13
2022-12-11T01:30:44.695Z,98406.94
2022-12-11T01:33:47.302Z,98415.53
2022-12-11T01:36:52.340Z,98416.75
2022-12-11T01:39:55.503Z,98416.47
2022-12-11T01:42:59.791Z,98401.41
2022-12-11T01:46:02.994Z,98406.38
2022-12-11T01:49:12.839Z,98417.59
2022-12-11T01:52:21.334Z,98416.50
2022-12-11T01:55:24.745Z,98420.81
2022-12-11T01:58:32.823Z,98431.09
2022-12-11T02:01:42.512Z,98424.22
2022-12-11T02:04:46.506Z,98429.94
2022-12-11T02:08:08.511Z,98424.34
2022-12-11T02:11:20.553Z,98416.13
2022-12-11T02:14:43.854Z,98417.69
2022-12-11T02:18:23.451Z,98422.38
2022-12-11T02:21:34.030Z,98441.03
2022-12-11T02:25:11.676Z,98430.22
2022-12-11T02:28:24.488Z,98426.91
2022-12-11T02:31:34.680Z,98432.75
2022-12-11T02:35:06.276Z,98422.53
2022-12-11T02:38:15.508Z,98418.66
2022-12-11T02:41:21.694Z,98412.19
2022-12-11T02:44:30.688Z,98408.28
2022-12-11T02:47:33.905Z,98414.06
2022-12-11T02:50:42.555Z,98419.16
2022-12-11T02:53:47.806Z,98408.00
2022-12-11T02:56:57.352Z,98416.75
2022-12-11T03:00:00.539Z,98415.81
2022-12-11T03:03:04.517Z,98408.06
2022-12-11T03:06:12.292Z,98412.97
2022-12-11T03:09:15.405Z,98395.84
2022-12-11T03:12:29.329Z,98386.59
2022-12-11T03:15:54.753Z,98406.44
2022-12-11T03:19:06.598Z,98405.09
2022-12-11T03:22:17.470Z,98398.63
2022-12-11T03:25:29.693Z,98404.00
2022-12-11T03:28:41.669Z,98405.50
2022-12-11T03:31:59.929Z,98404.19
2022-12-11T03:35:24.246Z,98406.38
2022-12-11T03:38:50.099Z,98392.47
2022-12-11T03:41:54.743Z,98388.84
2022-12-11T03:45:00.361Z,98401.09
2022-12-11T03:48:03.399Z,98401.00
2022-12-11T03:51:09.758Z,98405.78
2022-12-11T03:54:12.991Z,98401.81
2022-12-11T03:57:21.407Z,98400.84
2022-12-11T04:00:24.661Z,98406.47
2022-12-11T04:03:32.598Z,98408.53
2022-12-11T04:06:35.390Z,98413.50
2022-12-11T04:09:38.557Z,98418.06
2022-12-11T04:12:41.091Z,98423.13
2022-12-11T04:15:50.336Z,98413.19
2022-12-11T04:19:17.430Z,98416.13
2022-12-11T04:22:39.248Z,98418.72
2022-12-11T04:25:42.202Z,98426.62
2022-12-11T04:28:52.063Z,98433.41
2022-12-11T04:31:57.153Z,98442.97
2022-12-11T04:35:02.048Z,98434.50
2022-12-11T04:38:04.630Z,98439.63
2022-12-11T04:41:13.965Z,98443.03
2022-12-11T04:44:18.975Z,98454.81
2022-12-11T04:47:24.268Z,98456.78
2022-12-11T04:50:29.486Z,98466.22
2022-12-11T04:53:32.555Z,98472.09
2022-12-11T04:56:35.248Z,98478.31
2022-12-11T04:59:38.279Z,98481.50
2022-12-11T05:02:42.697Z,98481.72
2022-12-11T05:05:52.484Z,98481.41
2022-12-11T05:09:01.040Z,98500.19
2022-12-11T05:12:04.183Z,98509.78
2022-12-11T05:15:07.072Z,98499.03
2022-12-11T05:18:10.054Z,98496.88
2022-12-11T05:21:14.566Z,98493.72
2022-12-11T05:24:17.727Z,98505.66
2022-12-11T05:27:22.293Z,98510.94
2022-12-11T05:30:25.082Z,98514.41
2022-12-11T05:33:28.594Z,98507.31
2022-12-11T05:36:37.285Z,98505.19
2022-12-11T05:39:44.670Z,98500.50
2022-12-11T05:42:50.123Z,98501.47
2022-12-11T05:45:52.602Z,98507.56
2022-12-11T05:49:02.017Z,98507.13
2022-12-11T05:52:04.957Z,98501.81
2022-12-11T05:55:10.659Z,98505.97
2022-12-11T05:58:13.291Z,98506.19
2022-12-11T06:01:20.754Z,98522.75
2022-12-11T06:04:23.511Z,98531.63
2022-12-11T06:07:26.165Z,98528.53
2022-12-11T06:10:28.975Z,98539.97
2022-12-11T06:13:31.674Z,98553.91
2022-12-11T06:16:35.006Z,98567.91
2022-12-11T06:19:39.624Z,98566.41
2022-12-11T06:22:42.352Z,98575.34
2022-12-11T06:25:45.107Z,98583.53
2022-12-11T06:28:48.865Z,98578.31
2022-12-11T06:31:53.640Z,98582.03
2022-12-11T06:34:56.827Z,98588.97
2022-12-11T06:37:59.706Z,98596.66
2022-12-11T06:41:04.900Z,98593.94
2022-12-11T06:44:07.317Z,98595.88
2022-12-11T06:47:12.477Z,98596.56
2022-12-11T06:50:15.075Z,98608.53
2022-12-11T06:53:19.851Z,98613.41
2022-12-11T06:56:23.330Z,98622.13
2022-12-11T06:59:26.408Z,98621.44
2022-12-11T07:02:31.897Z,98635.97
2022-12-11T07:05:37.338Z,98610.69
2022-12-11T07:08:39.970Z,98611.72
2022-12-11T07:11:42.598Z,98607.84
2022-12-11T07:14:47.498Z,98628.56
2022-12-11T07:17:50.243Z,98620.31
2022-12-11T07:20:53.486Z,98611.09
2022-12-11T07:23:56.243Z,98622.37
2022-12-11T07:27:01.095Z,98622.37
2022-12-11T07:30:04.329Z,98609.56
2022-12-11T07:33:08.959Z,98619.28
2022-12-11T07:36:16.141Z,98613.06
2022-12-11T07:39:18.840Z,98625.25
2022-12-11T07:42:21.573Z,98634.75
2022-12-11T07:45:26.324Z,98650.41
2022-12-11T07:48:31.152Z,98656.25
2022-12-11T07:51:38.674Z,98672.38
2022-12-11T07:54:41.573Z,98671.47
2022-12-11T07:57:47.028Z,98684.03
2022-12-11T08:00:53.621Z,98701.16
2022-12-11T08:03:58.007Z,98704.41
2022-12-11T08:07:03.764Z,98710.84
2022-12-11T08:10:11.227Z,98727.56
2022-12-11T08:13:13.577Z,98734.47
2022-12-11T08:16:18.945Z,98746.25
2022-12-11T08:19:25.929Z,98763.75
2022-12-11T08:22:45.269Z,98769.53
2022-12-11T08:25:52.182Z,98770.19
2022-12-11T08:29:01.394Z,98773.66
2022-12-11T08:32:10.538Z,98760.97
2022-12-11T08:35:15.628Z,98764.00
2022-12-11T08:38:23.660Z,98764.38
2022-12-11T08:41:32.866Z,98772.69
2022-12-11T08:44:35.597Z,98776.34
2022-12-11T08:47:38.674Z,98788.44
2022-12-11T08:50:41.324Z,98792.59
2022-12-11T08:53:44.854Z,98796.91
2022-12-11T08:56:47.951Z,98797.25
2022-12-11T08:59:50.855Z,98799.06
2022-12-11T09:02:53.994Z,98814.50
2022-12-11T09:05:57.737Z,98805.63
2022-12-11T09:09:01.454Z,98812.25
2022-12-11T09:12:04.702Z,98822.22
2022-12-11T09:15:08.489Z,98813.38
2022-12-11T09:18:11.642Z,98810.75
2022-12-11T09:21:17.465Z,98806.81
2022-12-11T09:24:20.344Z,98807.03
2022-12-11T09:27:23.810Z,98821.59
2022-12-11T09:30:26.713Z,98819.97
2022-12-11T09:33:29.150Z,98821.66
2022-12-11T09:36:32.483Z,98818.00
2022-12-11T09:39:35.495Z,98816.19
2022-12-11T09:43:00.482Z,98814.22
2022-12-11T09:46:09.401Z,98802.53
2022-12-11T09:49:35.352Z,98802.63
2022-12-11T09:52:40.375Z,98814.59
2022-12-11T09:56:03.632Z,98804.41
2022-12-11T09:59:06.306Z,98800.81
2022-12-11T10:02:34.485Z,98787.59
2022-12-11T10:06:07.830Z,98782.91
2022-12-11T10:09:37.892Z,98778.12
2022-12-11T10:13:05.127Z,98784.38
2022-12-11T10:16:35.765Z,98782.31
2022-12-11T10:19:41.126Z,98805.91
2022-12-11T10:22:44.733Z,98809.94
2022-12-11T10:25:54.008Z,98829.34
2022-12-11T10:29:00.610Z,98836.25
2022-12-11T10:32:07.057Z,98831.28
2022-12-11T10:35:26.037Z,98824.41
2022-12-11T10:38:46.887Z,98810.78
2022-12-11T10:42:00.403Z,98814.91
2022-12-11T10:45:04.476Z,98816.47
2022-12-11T10:48:11.432Z,98836.56
2022-12-11T10:51:14.498Z,98840.50
2022-12-11T10:54:39.413Z,98843.97
2022-12-11T10:57:45.820Z,98855.16
2022-12-11T11:01:11.345Z,98856.53
2022-12-11T11:04:19.024Z,98844.28
2022-12-11T11:07:25.284Z,98838.94
2022-12-11T11:10:28.422Z,98841.06
2022-12-11T11:13:32.255Z,98838.16
2022-12-11T11:16:37.311Z,98838.47
2022-12-11T11:19:39.775Z,98827.50
2022-12-11T11:23:05.223Z,98830.53
2022-12-11T11:26:09.303Z,98826.44
2022-12-11T11:29:34.262Z,98819.91
2022-12-11T11:33:02.287Z,98822.84
2022-12-11T11:36:08.460Z,98842.69
2022-12-11T11:39:13.622Z,98854.31
2022-12-11T11:42:47.229Z,98845.53
2022-12-11T11:46:06.287Z,98855.16
2022-12-11T11:49:47.678Z,98861.16
2022-12-11T11:53:02.409Z,98866.47
2022-12-11T11:56:23.498Z,98864.50
2022-12-11T11:59:40.278Z,98862.16
2022-12-11T12:02:47.081Z,98878.53
2022-12-11T12:05:53.158Z,98879.66
2022-12-11T12:09:13.084Z,98881.78
2022-12-11T12:12:33.835Z,98896.22
2022-12-11T12:15:55.109Z,98891.09
2022-12-11T12:19:11.854Z,98888.19
2022-12-11T12:22:21.033Z,98900.09
2022-12-11T12:25:47.326Z,98898.84
2022-12-11T12:29:09.072Z,98904.37
2022-12-11T12:32:27.377Z,98887.69
2022-12-11T12:35:38.274Z,98893.66
2022-12-11T12:39:11.085Z,98893.66
2022-12-11T12:42:49.835Z,98892.78
2022-12-11T12:46:29.768Z,98896.75
2022-12-11T12:49:44.835Z,98899.22
2022-12-11T12:52:53.482Z,98906.16
2022-12-11T12:56:00.194Z,98910.25
2022-12-11T12:59:04.050Z,98923.94
2022-12-11T13:02:17.423Z,98937.47
2022-12-11T13:05:29.570Z,98957.91
2022-12-11T13:08:41.258Z,98957.91
2022-12-11T13:11:45.727Z,98965.37
2022-12-11T13:14:58.996Z,98966.19
2022-12-11T13:18:05.393Z,98967.44
2022-12-11T13:21:33.920Z,98964.03
2022-12-11T13:24:47.002Z,98975.38
2022-12-11T13:27:53.919Z,98980.13
2022-12-11T13:31:05.255Z,98977.41
2022-12-11T13:34:16.666Z,98984.12
2022-12-11T13:37:26.151Z,98983.88
2022-12-11T13:40:34.058Z,98981.38
2022-12-11T13:43:40.573Z,98984.12
2022-12-11T13:46:44.186Z,98990.13
2022-12-11T13:49:51.291Z,98990.47
2022-12-11T13:52:59.924Z,98996.38
2022-12-11T13:56:07.934Z,99002.41
2022-12-11T13:59:49.897Z,98999.00
2022-12-11T14:02:59.006Z,99009.44
2022-12-11T14:06:04.506Z,99016.66
2022-12-11T14:09:10.761Z,99029.94
2022-12-11T14:12:20.502Z,99031.41
2022-12-11T14:15:26.185Z,99035.72
2022-12-11T14:18:33.980Z,99043.06
2022-12-11T14:21:36.892Z,99045.47
2022-12-11T14:24:50.950Z,99053.16
2022-12-11T14:27:56.291Z,99055.66
2022-12-11T14:31:01.157Z,99056.09
2022-12-11T14:34:08.867Z,99072.19
2022-12-11T14:37:18.343Z,99072.97
2022-12-11T14:40:31.718Z,99078.91
2022-12-11T14:43:46.725Z,99079.59
2022-12-11T14:46:53.627Z,99083.16
2022-12-11T14:50:08.063Z,99082.22
2022-12-11T14:53:18.776Z,99089.09
2022-12-11T14:56:27.666Z,99090.66
2022-12-11T14:59:40.949Z,99100.56
2022-12-11T15:02:57.853Z,99098.91
2022-12-11T15:06:03.426Z,99106.50
2022-12-11T15:09:42.693Z,99099.81
2022-12-11T15:12:46.023Z,99105.12
2022-12-11T15:15:51.409Z,99109.50
2022-12-11T15:18:55.872Z,99113.84
2022-12-11T15:22:09.845Z,99114.56
2022-12-11T15:25:28.386Z,99114.84
2022-12-11T15:28:38.557Z,99109.19
2022-12-11T15:31:40.941Z,99121.06
2022-12-11T15:34:49.028Z,99120.94
2022-12-11T15:38:00.799Z,99133.59
2022-12-11T15:41:07.094Z,99130.25
2022-12-11T15:44:20.562Z,99128.69
2022-12-11T15:47:28.580Z,99130.25
2022-12-11T15:50:35.758Z,99128.88
2022-12-11T15:53:38.600Z,99128.03
2022-12-11T15:56:43.691Z,99125.78
2022-12-11T15:59:49.229Z,99119.13
2022-12-11T16:02:52.140Z,99122.59
2022-12-11T16:06:02.336Z,99131.78
2022-12-11T16:09:09.500Z,99134.91
2022-12-11T16:12:13.915Z,99143.06
2022-12-11T16:15:23.045Z,99144.16
2022-12-11T16:18:26.595Z,99147.56
2022-12-11T16:21:28.932Z,99149.16
2022-12-11T16:24:34.664Z,99154.50
2022-12-11T16:27:39.285Z,99151.69
2022-12-11T16:30:43.848Z,99152.34
2022-12-11T16:33:49.336Z,99145.75
2022-12-11T16:36:52.433Z,99153.63
2022-12-11T16:39:54.893Z,99152.78
2022-12-11T16:43:00.645Z,99168.41
2022-12-11T16:46:04.485Z,99163.25
2022-12-11T16:49:07.881Z,99159.72
2022-12-11T16:52:10.800Z,99166.72
2022-12-11T16:55:14.720Z,99167.38
2022-12-11T16:58:23.060Z,99166.06
2022-12-11T17:01:28.530Z,99156.81
2022-12-11T17:04:36.074Z,99165.13
2022-12-11T17:07:39.019Z,99170.87
2022-12-11T17:10:42.956Z,99169.13
2022-12-11T17:13:58.443Z,99166.31
2022-12-11T17:17:01.759Z,99160.84
2022-12-11T17:20:05.037Z,99162.03
2022-12-11T17:23:10.418Z,99168.16
2022-12-11T17:26:20.458Z,99169.69
2022-12-11T17:29:23.275Z,99160.31
2022-12-11T17:32:26.353Z,99164.25
2022-12-11T17:35:29.158Z,99167.06
2022-12-11T17:38:33.895Z,99161.56
2022-12-11T17:41:38.711Z,99163.56
2022-12-11T17:44:42.405Z,99165.19
2022-12-11T17:47:48.572Z,99172.25
2022-12-11T17:50:56.937Z,99168.06
2022-12-11T17:54:20.247Z,99166.16
2022-12-11T17:57:23.443Z,99160.41
2022-12-11T18:00:31.579Z,99167.69
2022-12-11T18:03:40.584Z,99169.09
2022-12-11T18:06:45.039Z,99171.53
2022-12-11T18:09:47.607Z,99182.78
2022-12-11T18:12:49.965Z,99179.13
2022-12-11T18:16:05.555Z,99184.75
2022-12-11T18:19:08.911Z,99184.75
2022-12-11T18:22:14.106Z,99184.97
2022-12-11T18:25:20.915Z,99182.19
2022-12-11T18:28:23.725Z,99192.09
2022-12-11T18:31:26.425Z,99199.84
2022-12-11T18:34:29.126Z,99208.84
2022-12-11T18:37:31.701Z,99204.81
2022-12-11T18:40:37.719Z,99204.62
2022-12-11T18:43:43.473Z,99211.00
2022-12-11T18:46:49.599Z,99214.06
2022-12-11T18:49:52.178Z,99214.88
2022-12-11T18:52:55.523Z,99214.06
2022-12-11T18:56:00.924Z,99208.87
2022-12-11T18:59:04.608Z,99222.13
2022-12-11T19:02:07.625Z,99224.88
2022-12-11T19:05:11.470Z,99226.94
2022-12-11T19:08:16.659Z,99236.13
2022-12-11T19:11:26.111Z,99238.47
2022-12-11T19:14:34.742Z,99248.16
2022-12-11T19:17:38.724Z,99245.75
2022-12-11T19:20:53.637Z,99237.44
2022-12-11T19:24:00.870Z,99236.94
2022-12-11T19:27:07.326Z,99241.50
2022-12-11T19:30:13.443Z,99245.13
2022-12-11T19:33:17.475Z,99249.81
2022-12-11T19:36:23.898Z,99248.63
2022-12-11T19:39:29.280Z,99246.78
2022-12-11T19:42:32.572Z,99252.22
2022-12-11T19:45:35.479Z,99243.41
2022-12-11T19:48:41.311Z,99253.84
2022-12-11T19:51:44.943Z,99252.69
2022-12-11T19:54:48.718Z,99264.22
2022-12-11T19:57:51.166Z,99264.59
2022-12-11T20:01:25.848Z,99265.69
2022-12-11T20:04:29.164Z,99262.47
2022-12-11T20:07:33.905Z,99262.31
2022-12-11T20:10:37.625Z,99266.88
2022-12-11T20:13:45.689Z,99269.09
2022-12-11T20:20:11.879Z,99268.31
2022-12-11T20:23:17.115Z,99272.53
2022-12-11T20:26:23.110Z,99277.94
2022-12-11T20:29:28.938Z,99277.94
2022-12-11T20:32:31.674Z,99279.19
2022-12-11T20:35:34.593Z,99282.41
2022-12-11T20:38:42.075Z,99278.34
2022-12-11T20:41:45.586Z,99284.56
2022-12-11T20:44:49.438Z,99287.19
2022-12-11T20:47:55.193Z,99287.25
2022-12-11T20:51:04.827Z,99282.81
2022-12-11T20:54:08.027Z,99290.00
2022-12-11T20:57:11.850Z,99291.44
2022-12-11T21:00:15.080Z,99279.63
2022-12-11T21:03:17.862Z,99294.03
2022-12-11T21:06:30.923Z,99298.88
2022-12-11T21:09:46.257Z,99311.28
2022-12-11T21:12:49.415Z,99317.28
2022-12-11T21:15:56.808Z,99316.06
2022-12-11T21:19:10.122Z,99311.69
2022-12-11T21:22:14.896Z,99324.31
2022-12-11T21:25:22.467Z,99317.31
2022-12-11T21:28:29.301Z,99335.75
2022-12-11T21:31:35.539Z,99324.50
2022-12-11T21:34:46.151Z,99336.34
2022-12-11T21:37:49.167Z,99330.50
2022-12-11T21:40:53.272Z,99335.91
2022-12-11T21:47:21.281Z,99342.53
2022-12-11T21:50:23.953Z,99341.16
2022-12-11T21:53:26.456Z,99348.94
2022-12-11T21:56:32.110Z,99344.13
2022-12-11T21:59:37.397Z,99350.19
2022-12-11T22:02:41.285Z,99359.75
2022-12-11T22:05:44.493Z,99348.16
2022-12-11T22:08:49.081Z,99356.19
2022-12-11T22:11:56.651Z,99358.97
2022-12-11T22:15:00.847Z,99363.13
2022-12-11T22:18:04.214Z,99361.13
2022-12-11T22:21:08.024Z,99360.53
2022-12-11T22:24:14.164Z,99366.94
2022-12-11T22:27:23.716Z,99363.75
2022-12-11T22:30:37.188Z,99364.94
2022-12-11T22:33:42.545Z,99350.16
2022-12-11T22:36:45.234Z,99351.78
2022-12-11T22:39:47.695Z,99359.78
2022-12-11T22:42:50.611Z,99370.97
2022-12-11T22:45:53.126Z,99365.78
2022-12-11T22:49:00.118Z,99371.16
2022-12-11T22:52:08.002Z,99375.37
2022-12-11T22:55:11.847Z,99383.97
2022-12-11T22:58:21.496Z,99379.97
2022-12-11T23:01:29.498Z,99385.78
2022-12-11T23:04:32.139Z,99388.16
2022-12-11T23:07:37.519Z,99396.53
2022-12-11T23:10:44.275Z,99387.56
2022-12-11T23:13:47.346Z,99381.34
2022-12-11T23:16:49.756Z,99382.34
2022-12-11T23:19:55.032Z,99370.16
2022-12-11T23:22:59.643Z,99376.53
2022-12-11T23:26:03.871Z,99390.75
2022-12-11T23:29:09.863Z,99388.72
2022-12-11T23:32:13.036Z,99379.75
2022-12-11T23:35:16.143Z,99382.53
2022-12-11T23:38:18.966Z,99379.94
2022-12-11T23:41:22.413Z,99385.72
2022-12-11T23:44:25.051Z,99380.31
2022-12-11T23:47:27.444Z,99387.31
2022-12-11T23:50:32.984Z,99390.94
2022-12-11T23:53:35.905Z,99393.31
2022-12-11T23:56:38.797Z,99388.09
2022-12-11T23:59:41.234Z,99380.12
